Airfield :
LOGIN :

Register | Disclaimer

   EN    FR    IT 

 










Legend :    VFR   Marginal VFR   IFR   Intensive IFR   Very Intensive IFR
Visi :
Ceiling :
>= 8 km
>= 3000ft
5 to 8 km
1000 to 3000 ft
1500m to 5 km
500 to 1000 ft
800 to 1500m
200 to 500 ft
< 800m
< 200 ft
Symbols :   Thunderstorms  Fog  Heavy snow  Heavy precipitations  Wind > 20 kt
SIGMETs :     Misc.  Thunderstorms  Icing  Turbulence  Mountain Waves  Volcanic Ashes






- Airport Elevation : 529 ft
- IATA code : CHR


LFLX - Chateauroux

CURRENT METAR :
  • 301400Z AUTO 04012KT 9999 OVC014 07/05 Q1021 TEMPO BKN020

EXPIRED METARs :
  • 301330Z AUTO 04010KT 9999 BKN010 OVC015 07/05 Q1021 TEMPO BKN020
  • 301300Z AUTO 04010KT 9999 BKN009 OVC013 07/05 Q1021 TEMPO BKN020
  • 301230Z AUTO 04010KT 9999 OVC008 07/05 Q1021 TEMPO BKN020
  • 301200Z AUTO 04009KT 9999 OVC008 07/05 Q1021 NOSIG
  • 301130Z AUTO 04010KT 9999 OVC009 07/05 Q1021 BECMG BKN020

TAF TAF LFLX
Valid from the 30 at 12:00 until the 01 at 18:00 UTC


301100Z 3012/0118 04008KT 9999 BKN012
TEMPO 3012/3014 BKN008
TEMPO 3014/3020 BKN020
TEMPO 3020/0112 BKN007
BECMG 0112/0114 BKN020



MET'MAP, your aeronautical weather chart ! - Copyright ORBIFLY December 2007 - Disclaimer

ORBIFLY MET'MAP TEAM :

Programming & Development : Alexandra Zaïnal
Original concept : Baudouin d'Aumeries
Technical & hardware support : Manuel Goepfert
Assistance : Marc-Olivier Méhu




SOURCES & CREDITS :

   NOAA